createdAt,value
2018-06-15T00:03:27.645Z,33.33
2018-06-15T00:07:31.015Z,31.47
2018-06-15T00:11:34.360Z,31.60
2018-06-15T00:15:37.737Z,32.07
2018-06-15T00:19:41.123Z,31.67
2018-06-15T00:23:44.483Z,31.43
2018-06-15T00:27:47.962Z,29.10
2018-06-15T00:31:51.297Z,30.10
2018-06-15T00:35:54.609Z,32.63
2018-06-15T00:39:57.946Z,33.50
2018-06-15T00:44:01.291Z,31.77
2018-06-15T00:48:04.671Z,32.77
2018-06-15T00:52:08.025Z,32.33
2018-06-15T00:56:11.354Z,34.57
2018-06-15T01:00:14.871Z,34.20
2018-06-15T01:04:18.203Z,35.10
2018-06-15T01:08:21.639Z,35.63
2018-06-15T01:12:24.974Z,34.03
2018-06-15T01:16:28.290Z,33.87
2018-06-15T01:20:31.788Z,34.10
2018-06-15T01:24:35.143Z,36.27
2018-06-15T01:28:38.474Z,35.13
2018-06-15T01:32:41.815Z,36.40
2018-06-15T01:36:45.151Z,36.07
2018-06-15T01:40:48.520Z,36.93
2018-06-15T01:44:58.324Z,36.93
2018-06-15T01:49:01.660Z,36.13
2018-06-15T01:53:05.007Z,36.03
2018-06-15T01:57:08.359Z,34.83
2018-06-15T02:01:11.878Z,35.80
2018-06-15T02:05:15.335Z,38.50
2018-06-15T02:09:18.679Z,34.73
2018-06-15T02:13:22.044Z,36.13
2018-06-15T02:17:25.403Z,36.13
2018-06-15T02:21:29.704Z,37.33
2018-06-15T02:25:33.043Z,34.60
2018-06-15T02:29:36.371Z,35.97
2018-06-15T02:33:39.712Z,34.87
2018-06-15T02:37:43.086Z,36.53
2018-06-15T02:41:47.716Z,35.57
2018-06-15T02:45:51.067Z,34.80
2018-06-15T02:49:54.400Z,36.40
2018-06-15T02:53:57.749Z,35.77
2018-06-15T02:58:01.117Z,33.73
2018-06-15T03:02:04.612Z,34.37
2018-06-15T03:06:07.958Z,32.33
2018-06-15T03:10:11.283Z,34.87
2018-06-15T03:14:14.627Z,35.00
2018-06-15T03:18:17.995Z,35.17
2018-06-15T03:22:21.328Z,33.70
2018-06-15T03:26:24.780Z,35.07
2018-06-15T03:30:28.164Z,34.13
2018-06-15T03:34:31.494Z,35.40
2018-06-15T03:38:34.875Z,35.57
2018-06-15T03:42:38.215Z,35.80
2018-06-15T03:46:41.556Z,34.80
2018-06-15T03:50:44.878Z,34.83
2018-06-15T03:54:48.304Z,34.73
2018-06-15T03:58:51.962Z,36.33
2018-06-15T04:02:55.294Z,35.20
2018-06-15T04:06:58.723Z,34.87
2018-06-15T04:11:02.055Z,34.63
2018-06-15T04:15:05.386Z,34.33
2018-06-15T04:19:08.749Z,34.77
2018-06-15T04:23:12.103Z,34.37
2018-06-15T04:27:15.454Z,36.00
2018-06-15T04:31:18.802Z,35.53
2018-06-15T04:35:22.184Z,35.17
2018-06-15T04:39:25.522Z,36.10
2018-06-15T04:43:28.907Z,36.13
2018-06-15T04:47:32.422Z,36.70
2018-06-15T04:51:35.759Z,36.17
2018-06-15T04:55:39.100Z,37.33
2018-06-15T04:59:42.447Z,36.70
2018-06-15T05:03:45.803Z,35.27
2018-06-15T05:07:49.135Z,36.93
2018-06-15T05:11:52.501Z,35.13
2018-06-15T05:15:55.867Z,37.07
2018-06-15T05:19:59.228Z,36.10
2018-06-15T05:24:02.585Z,35.07
2018-06-15T05:28:05.914Z,35.40
2018-06-15T05:32:09.320Z,34.40
2018-06-15T05:36:12.698Z,35.37
2018-06-15T05:40:16.075Z,36.20
2018-06-15T05:44:19.418Z,33.30
2018-06-15T05:48:22.754Z,33.80
2018-06-15T05:52:26.103Z,34.57
2018-06-15T05:56:29.511Z,34.63
2018-06-15T06:00:32.973Z,33.60
2018-06-15T06:04:36.335Z,30.33
2018-06-15T06:08:39.681Z,31.13
2018-06-15T06:12:43.063Z,31.40
2018-06-15T06:16:46.431Z,29.90
2018-06-15T06:20:49.800Z,27.67
2018-06-15T06:24:53.166Z,28.23
2018-06-15T06:28:56.483Z,29.20
2018-06-15T06:32:59.839Z,27.07
2018-06-15T06:37:03.174Z,27.03
2018-06-15T06:45:16.098Z,25.67
2018-06-15T06:49:19.456Z,25.00
2018-06-15T06:53:22.804Z,24.57
2018-06-15T06:57:26.145Z,25.13
2018-06-15T07:01:29.514Z,24.73
2018-06-15T07:05:32.860Z,23.90
2018-06-15T07:09:36.247Z,24.73
2018-06-15T07:13:39.590Z,24.83
2018-06-15T07:17:42.947Z,24.20
2018-06-15T07:21:46.306Z,25.20
2018-06-15T07:25:49.650Z,24.97
2018-06-15T07:29:52.975Z,24.73
2018-06-15T07:33:56.319Z,25.77
2018-06-15T07:37:59.656Z,24.13
2018-06-15T07:42:03.008Z,24.60
2018-06-15T07:46:06.411Z,23.40
2018-06-15T07:50:09.756Z,23.13
2018-06-15T07:54:13.116Z,22.57
2018-06-15T07:58:16.492Z,23.97
2018-06-15T08:02:19.850Z,22.13
2018-06-15T08:06:23.229Z,20.30
2018-06-15T08:10:26.615Z,20.70
2018-06-15T08:14:29.974Z,21.80
2018-06-15T08:18:33.361Z,20.57
2018-06-15T08:22:36.687Z,17.63
2018-06-15T08:26:40.033Z,18.77
2018-06-15T08:30:43.378Z,17.03
2018-06-15T08:34:46.725Z,15.17
2018-06-15T08:38:50.079Z,16.13
2018-06-15T08:42:53.446Z,14.10
2018-06-15T08:46:56.794Z,16.07
2018-06-15T08:51:00.160Z,14.73
2018-06-15T08:55:03.506Z,14.07
2018-06-15T08:59:07.648Z,13.77
2018-06-15T09:03:11.474Z,12.80
2018-06-15T09:07:14.846Z,12.30
2018-06-15T09:11:18.210Z,11.20
2018-06-15T09:15:21.635Z,12.40
2018-06-15T09:19:25.270Z,14.03
2018-06-15T09:23:28.629Z,13.23
2018-06-15T09:27:32.008Z,11.03
2018-06-15T09:31:35.433Z,9.77
2018-06-15T09:35:38.782Z,9.40
2018-06-15T09:39:42.143Z,8.97
2018-06-15T09:43:45.506Z,10.20
2018-06-15T09:47:48.870Z,9.83
2018-06-15T09:51:52.232Z,7.87
2018-06-15T09:55:56.827Z,8.00
2018-06-15T10:00:00.219Z,7.87
2018-06-15T10:04:03.588Z,8.07
2018-06-15T10:08:07.072Z,7.60
2018-06-15T10:12:10.438Z,6.53
2018-06-15T10:16:13.833Z,6.90
2018-06-15T10:20:17.216Z,6.73
2018-06-15T10:24:20.572Z,4.63
2018-06-15T10:28:24.547Z,5.40
2018-06-15T10:32:27.895Z,5.77
2018-06-15T10:36:31.326Z,5.87
2018-06-15T10:40:34.679Z,5.27
2018-06-15T10:44:38.042Z,5.07
2018-06-15T10:48:41.402Z,4.73
2018-06-15T10:52:44.773Z,5.00
2018-06-15T10:56:48.143Z,5.40
2018-06-15T11:00:51.514Z,5.30
2018-06-15T11:04:54.879Z,5.40
2018-06-15T11:08:58.286Z,5.43
2018-06-15T11:13:01.657Z,5.20
2018-06-15T11:17:05.083Z,5.33
2018-06-15T11:21:08.483Z,4.73
2018-06-15T11:25:11.839Z,4.30
2018-06-15T11:29:15.207Z,4.60
2018-06-15T11:33:18.548Z,4.00
2018-06-15T11:37:22.119Z,4.03
2018-06-15T11:41:25.553Z,4.00
2018-06-15T11:45:28.900Z,4.30
2018-06-15T11:49:32.286Z,3.60
2018-06-15T11:53:35.634Z,4.07
2018-06-15T11:57:39.002Z,3.70
2018-06-15T12:01:42.471Z,3.40
2018-06-15T12:05:45.854Z,3.73
2018-06-15T12:09:49.182Z,3.03
2018-06-15T12:13:52.555Z,2.90
2018-06-15T12:17:55.918Z,2.90
2018-06-15T12:21:59.258Z,3.20
2018-06-15T12:26:02.689Z,2.90
2018-06-15T12:30:06.175Z,2.50
2018-06-15T12:34:09.532Z,2.90
2018-06-15T12:38:12.870Z,2.70
2018-06-15T12:42:16.203Z,3.07
2018-06-15T12:46:19.570Z,3.00
2018-06-15T12:50:22.915Z,2.47
2018-06-15T12:54:26.240Z,3.00
2018-06-15T12:58:29.567Z,2.83
2018-06-15T13:02:33.083Z,3.20
2018-06-15T13:06:36.435Z,2.57
2018-06-15T13:10:39.786Z,3.00
2018-06-15T13:14:43.107Z,2.60
2018-06-15T13:18:47.283Z,2.67
2018-06-15T13:22:50.802Z,2.77
2018-06-15T13:26:54.147Z,3.43
2018-06-15T13:30:57.506Z,2.73
2018-06-15T13:35:00.871Z,3.00
2018-06-15T13:39:07.596Z,3.33
2018-06-15T13:43:10.956Z,3.00
2018-06-15T13:47:14.362Z,3.20
2018-06-15T13:51:18.222Z,3.37
2018-06-15T13:55:21.551Z,3.10
2018-06-15T13:59:24.978Z,3.70
2018-06-15T14:03:28.327Z,3.50
2018-06-15T14:07:31.699Z,3.40
2018-06-15T14:11:35.063Z,3.30
2018-06-15T14:15:38.474Z,3.60
2018-06-15T14:19:41.840Z,4.00
2018-06-15T14:23:45.215Z,3.90
2018-06-15T14:27:48.558Z,4.47
2018-06-15T14:31:52.167Z,4.40
2018-06-15T14:35:55.535Z,4.03
2018-06-15T14:39:58.852Z,3.77
2018-06-15T14:44:02.189Z,4.83
2018-06-15T14:48:05.649Z,4.40
2018-06-15T14:52:09.074Z,4.47
2018-06-15T14:56:12.424Z,4.70
2018-06-15T15:00:15.754Z,4.37
2018-06-15T15:04:19.087Z,4.43
2018-06-15T15:08:22.427Z,4.50
2018-06-15T15:12:25.824Z,4.67
2018-06-15T15:16:29.266Z,4.67
2018-06-15T15:20:33.008Z,4.17
2018-06-15T15:24:36.356Z,4.60
2018-06-15T15:28:39.978Z,5.17
2018-06-15T15:32:43.443Z,5.53
2018-06-15T15:36:46.855Z,4.90
2018-06-15T15:40:50.170Z,4.60
2018-06-15T15:44:53.593Z,5.37
2018-06-15T15:48:57.990Z,4.90
2018-06-15T15:53:01.311Z,4.67
2018-06-15T15:57:04.728Z,5.33
2018-06-15T16:01:08.070Z,4.50
2018-06-15T16:05:11.438Z,4.80
2018-06-15T16:09:14.907Z,5.03
2018-06-15T16:13:18.315Z,4.70
2018-06-15T16:17:21.647Z,5.13
2018-06-15T16:21:25.014Z,4.70
2018-06-15T16:25:28.408Z,5.37
2018-06-15T16:29:31.774Z,5.27
2018-06-15T16:33:35.115Z,5.17
2018-06-15T16:37:38.458Z,5.17
2018-06-15T16:41:41.802Z,6.00
2018-06-15T16:45:45.155Z,5.50
2018-06-15T16:49:48.514Z,6.13
2018-06-15T16:53:51.874Z,5.83
2018-06-15T16:57:55.244Z,5.70
2018-06-15T17:01:59.778Z,5.87
2018-06-15T17:06:03.128Z,5.77
2018-06-15T17:10:06.551Z,5.77
2018-06-15T17:14:09.991Z,6.03
2018-06-15T17:18:13.400Z,5.33
2018-06-15T17:22:16.815Z,5.77
2018-06-15T17:26:20.210Z,5.40
2018-06-15T17:30:24.427Z,5.80
2018-06-15T17:34:27.765Z,5.70
2018-06-15T17:38:31.117Z,5.40
2018-06-15T17:42:34.491Z,5.03
2018-06-15T17:46:38.028Z,5.10
2018-06-15T17:50:41.417Z,5.37
2018-06-15T17:54:44.801Z,5.37
2018-06-15T17:58:48.166Z,5.37
2018-06-15T18:02:51.796Z,5.60
2018-06-15T18:06:55.179Z,5.80
2018-06-15T18:10:58.555Z,6.97
2018-06-15T18:15:01.923Z,7.40
2018-06-15T18:19:05.391Z,7.13
2018-06-15T18:23:08.868Z,6.60
2018-06-15T18:27:12.358Z,6.50
2018-06-15T18:31:15.886Z,6.20
2018-06-15T18:35:19.328Z,6.60
2018-06-15T18:39:22.723Z,5.93
2018-06-15T18:43:26.080Z,6.00
2018-06-15T18:47:29.167Z,5.67
2018-06-15T18:51:32.536Z,6.07
2018-06-15T18:55:35.938Z,5.60
2018-06-15T18:59:39.318Z,5.83
2018-06-15T19:03:42.734Z,5.43
2018-06-15T19:07:46.187Z,5.90
2018-06-15T19:11:49.611Z,5.83
2018-06-15T19:15:53.013Z,5.80
2018-06-15T19:19:56.451Z,6.03
2018-06-15T19:23:59.826Z,5.90
2018-06-15T19:28:03.198Z,5.43
2018-06-15T19:32:06.555Z,6.13
2018-06-15T19:36:09.921Z,5.70
2018-06-15T19:40:12.998Z,5.80
2018-06-15T19:44:16.347Z,6.30
2018-06-15T19:48:19.719Z,6.12
2018-06-15T19:52:23.056Z,6.50
2018-06-15T19:56:26.416Z,7.20
2018-06-15T20:00:29.751Z,7.50
2018-06-15T20:04:32.805Z,6.60
2018-06-15T20:08:36.175Z,7.23
2018-06-15T20:12:39.543Z,6.90
2018-06-15T20:16:42.908Z,7.53
2018-06-15T20:20:46.283Z,7.43
2018-06-15T20:24:49.658Z,7.03
2018-06-15T20:28:53.011Z,7.73
2018-06-15T20:32:56.371Z,7.33
2018-06-15T20:36:59.720Z,6.90
2018-06-15T20:41:03.125Z,7.13
2018-06-15T20:45:08.255Z,7.40
2018-06-15T20:49:11.648Z,7.47
2018-06-15T20:53:14.997Z,7.87
2018-06-15T20:57:18.318Z,7.57
2018-06-15T21:01:21.914Z,7.13
2018-06-15T21:05:25.256Z,7.27
2018-06-15T21:09:28.595Z,8.70
2018-06-15T21:13:31.938Z,8.60
2018-06-15T21:17:35.299Z,9.40
2018-06-15T21:21:38.723Z,9.17
2018-06-15T21:25:42.080Z,9.10
2018-06-15T21:29:47.487Z,8.70
2018-06-15T21:33:50.849Z,8.47
2018-06-15T21:37:54.346Z,8.50
2018-06-15T21:41:57.684Z,8.10
2018-06-15T21:46:01.000Z,9.33
2018-06-15T21:50:04.361Z,8.87
2018-06-15T21:54:07.698Z,9.13
2018-06-15T21:58:11.039Z,8.70
2018-06-15T22:02:14.382Z,8.47
2018-06-15T22:06:17.724Z,9.23
2018-06-15T22:10:21.162Z,9.20
2018-06-15T22:14:24.490Z,9.50
2018-06-15T22:18:27.859Z,9.57
2018-06-15T22:22:31.187Z,8.03
2018-06-15T22:26:34.511Z,8.37
2018-06-15T22:30:47.976Z,9.37
2018-06-15T22:34:51.507Z,8.90
2018-06-15T22:38:54.857Z,8.73
2018-06-15T22:42:58.213Z,8.80
2018-06-15T22:47:01.538Z,8.73
2018-06-15T22:51:04.887Z,9.20
2018-06-15T22:55:08.245Z,9.47
2018-06-15T22:59:11.581Z,8.77
2018-06-15T23:03:14.915Z,10.00
2018-06-15T23:07:18.219Z,9.00
2018-06-15T23:11:21.604Z,9.40
2018-06-15T23:15:24.966Z,9.40
2018-06-15T23:19:28.298Z,9.00
2018-06-15T23:23:31.635Z,8.60
2018-06-15T23:27:35.123Z,8.80
2018-06-15T23:31:38.443Z,9.07
2018-06-15T23:35:41.858Z,9.07
2018-06-15T23:39:45.339Z,9.77
2018-06-15T23:43:48.687Z,9.00
2018-06-15T23:47:52.024Z,9.90
2018-06-15T23:51:55.379Z,10.17
2018-06-15T23:55:58.754Z,9.90
